Time;durP1;ratioP1;P1;durP2;ratioP2;P2;SDS_P1;SDS_P2;PMS_P1;PMS_P2;Temp;Humidity;BMP_temperature;BMP_pressure;BME280_temperature;BME280_humidity;BME280_pressure;Samples;Min_cycle;Max_cycle;Signal;HPM_P1;HPM_P2
2022/07/08 00:00:41;;;;;;;8.37;2.50;;;15.00;99.90;;;;;;5175929;27;20481;-79
2022/07/08 00:03:07;;;;;;;9.65;2.10;;;15.00;99.90;;;;;;5175837;27;20790;-79
2022/07/08 00:05:32;;;;;;;4.80;1.75;;;14.90;99.90;;;;;;5176073;27;20074;-79
2022/07/08 00:07:58;;;;;;;8.32;1.95;;;15.00;99.90;;;;;;5175897;27;20125;-79
2022/07/08 00:10:24;;;;;;;7.17;1.80;;;15.00;99.90;;;;;;5176183;27;20043;-78
2022/07/08 00:12:49;;;;;;;8.57;2.08;;;15.00;99.90;;;;;;5176052;27;20037;-78
2022/07/08 00:15:15;;;;;;;7.90;1.77;;;15.00;99.90;;;;;;5176029;27;20030;-79
2022/07/08 00:17:40;;;;;;;7.43;1.70;;;14.90;99.90;;;;;;5176033;27;20066;-79
2022/07/08 00:20:07;;;;;;;8.60;1.87;;;14.90;99.90;;;;;;5175743;27;20126;-79
2022/07/08 00:22:33;;;;;;;7.97;2.00;;;14.90;99.90;;;;;;5175986;27;20363;-79
2022/07/08 00:24:59;;;;;;;8.23;2.53;;;14.90;99.90;;;;;;5175859;27;20065;-79
2022/07/08 00:27:25;;;;;;;5.63;1.73;;;14.90;99.90;;;;;;5175881;27;20470;-79
2022/07/08 00:29:50;;;;;;;11.47;2.17;;;14.90;99.90;;;;;;5175916;27;20026;-79
2022/07/08 00:32:16;;;;;;;5.70;1.87;;;14.90;99.90;;;;;;5175958;27;20030;-79
2022/07/08 00:34:42;;;;;;;6.40;1.80;;;14.90;99.90;;;;;;5157061;27;20042;-79
2022/07/08 00:37:08;;;;;;;7.87;1.83;;;14.90;99.90;;;;;;5175948;27;20049;-79
2022/07/08 00:39:34;;;;;;;6.00;1.90;;;14.90;99.90;;;;;;5175794;27;20477;-79
2022/07/08 00:42:00;;;;;;;10.43;2.10;;;14.90;99.90;;;;;;5175746;27;20081;-78
2022/07/08 00:44:26;;;;;;;7.13;1.90;;;14.90;99.90;;;;;;5175637;27;20087;-77
2022/07/08 00:46:51;;;;;;;11.10;2.17;;;14.90;99.90;;;;;;5176988;27;20267;-78
2022/07/08 00:49:17;;;;;;;9.68;1.70;;;14.90;99.90;;;;;;5179614;27;20034;-79
2022/07/08 00:51:44;;;;;;;6.27;1.80;;;14.90;99.90;;;;;;5179566;27;20037;-78
2022/07/08 00:54:16;;;;;;;8.48;1.73;;;14.80;99.90;;;;;;5179450;27;20041;-79
2022/07/08 00:56:41;;;;;;;9.02;2.38;;;14.80;99.90;;;;;;5179421;27;20422;-79
2022/07/08 00:59:08;;;;;;;7.77;2.10;;;14.80;99.90;;;;;;5179090;27;20034;-78
2022/07/08 01:01:34;;;;;;;;;;;14.80;99.90;;;;;;5179783;27;20113;-79
2022/07/08 01:03:59;;;;;;;7.22;1.88;;;14.80;99.90;;;;;;5179280;27;19972;-78
2022/07/08 01:06:25;;;;;;;7.33;2.27;;;14.70;99.90;;;;;;5179195;27;20434;-79
2022/07/08 01:08:51;;;;;;;10.43;1.63;;;14.70;99.90;;;;;;5178954;27;20486;-79
2022/07/08 01:11:16;;;;;;;9.67;2.30;;;14.70;99.90;;;;;;5179081;27;20041;-79
2022/07/08 01:13:43;;;;;;;8.00;2.03;;;14.60;99.90;;;;;;5179032;27;20494;-78
2022/07/08 01:16:09;;;;;;;9.10;1.90;;;14.60;99.90;;;;;;5179115;27;20398;-79
2022/07/08 01:18:34;;;;;;;8.03;2.07;;;14.60;99.90;;;;;;5179041;27;20048;-79
2022/07/08 01:21:00;;;;;;;8.80;1.73;;;14.60;99.90;;;;;;5179022;27;20108;-79
2022/07/08 01:23:26;;;;;;;11.63;2.47;;;14.60;99.90;;;;;;5159984;27;20034;-79
2022/07/08 01:25:53;;;;;;;7.53;1.48;;;14.50;99.90;;;;;;5178779;27;20065;-79
2022/07/08 01:28:19;;;;;;;9.30;2.17;;;14.50;99.90;;;;;;5178743;27;20042;-78
2022/07/08 01:30:45;;;;;;;9.83;2.50;;;14.40;99.90;;;;;;5178752;27;20038;-78
2022/07/08 01:33:11;;;;;;;9.20;1.98;;;14.40;99.90;;;;;;5178771;27;20093;-79
2022/07/08 01:35:37;;;;;;;5.57;1.70;;;14.40;99.90;;;;;;5178618;27;20042;-79
2022/07/08 01:38:03;;;;;;;9.87;2.30;;;14.30;99.90;;;;;;5178561;27;20034;-79
2022/07/08 01:40:28;;;;;;;7.72;1.90;;;14.30;99.90;;;;;;5178545;27;20046;-78
2022/07/08 01:42:54;;;;;;;7.53;2.27;;;14.20;99.90;;;;;;5178518;27;20166;-79
2022/07/08 01:45:19;;;;;;;9.60;2.10;;;14.20;99.90;;;;;;5160332;27;20118;-79
2022/07/08 01:47:45;;;;;;;6.88;2.25;;;14.20;99.90;;;;;;5178444;27;20027;-79
2022/07/08 01:50:11;;;;;;;9.40;2.40;;;14.10;99.90;;;;;;5178346;27;20470;-78
2022/07/08 01:52:37;;;;;;;9.52;2.10;;;14.10;99.90;;;;;;5178254;27;20034;-78
2022/07/08 01:55:04;;;;;;;7.87;2.27;;;14.10;99.90;;;;;;5178294;27;20377;-79
2022/07/08 01:57:31;;;;;;;9.23;1.92;;;14.00;99.90;;;;;;5178763;27;20610;-79
2022/07/08 01:59:57;;;;;;;8.05;1.90;;;14.00;99.90;;;;;;5177482;27;20069;-78
2022/07/08 02:02:22;;;;;;;8.53;2.20;;;13.90;99.90;;;;;;5178101;27;20477;-78
2022/07/08 02:04:48;;;;;;;6.40;2.13;;;13.90;99.90;;;;;;5178058;27;20389;-78
2022/07/08 02:07:15;;;;;;;6.97;2.30;;;13.90;99.90;;;;;;5177748;27;20427;-78
2022/07/08 02:09:41;;;;;;;8.63;2.10;;;13.80;99.90;;;;;;5177571;27;20050;-78
2022/07/08 02:12:20;;;;;;;8.82;1.98;;;13.80;99.90;;;;;;5177917;27;20381;-79
2022/07/08 02:15:03;;;;;;;7.28;2.03;;;13.70;99.90;;;;;;5177919;27;20038;-78
2022/07/08 02:17:32;;;;;;;8.00;2.17;;;13.70;99.90;;;;;;5177726;27;20482;-78
2022/07/08 02:19:58;;;;;;;6.82;2.00;;;13.60;99.90;;;;;;5177787;27;20051;-78
2022/07/08 02:22:24;;;;;;;9.17;2.20;;;13.60;99.90;;;;;;5177711;27;20034;-78
2022/07/08 02:24:50;;;;;;;6.45;2.10;;;13.50;99.90;;;;;;5177615;27;20069;-79
2022/07/08 02:27:17;;;;;;;10.02;2.30;;;13.50;99.90;;;;;;5177532;27;20529;-79
2022/07/08 02:29:42;;;;;;;9.32;2.03;;;13.40;99.90;;;;;;5177633;27;20038;-79
2022/07/08 02:32:08;;;;;;;8.50;2.58;;;13.40;99.90;;;;;;5177523;27;20371;-79
2022/07/08 02:34:34;;;;;;;10.50;2.20;;;13.40;99.90;;;;;;5177504;27;20142;-79
2022/07/08 02:36:59;;;;;;;5.57;1.98;;;13.30;99.90;;;;;;5177446;27;20038;-78
2022/07/08 02:39:25;;;;;;;9.85;2.55;;;13.30;99.90;;;;;;5177398;27;20082;-79
2022/07/08 02:41:51;;;;;;;7.15;2.30;;;13.30;99.90;;;;;;5177360;27;20045;-79
2022/07/08 02:44:17;;;;;;;9.18;2.20;;;13.20;99.90;;;;;;5177273;27;20038;-79
2022/07/08 02:46:44;;;;;;;9.18;2.35;;;13.20;99.90;;;;;;5177200;27;20041;-79
2022/07/08 02:49:09;;;;;;;8.55;2.10;;;13.20;99.90;;;;;;5177206;27;20057;-79
2022/07/08 02:51:35;;;;;;;9.20;2.25;;;13.10;99.90;;;;;;5177147;27;20470;-79
2022/07/08 02:54:02;;;;;;;7.57;2.20;;;13.10;99.90;;;;;;5177067;27;20094;-79
2022/07/08 02:56:29;;;;;;;7.60;1.98;;;13.10;99.90;;;;;;5177080;27;20049;-79
2022/07/08 02:58:54;;;;;;;;;;;13.10;99.90;;;;;;5177455;27;20046;-79
2022/07/08 03:01:20;;;;;;;7.78;2.20;;;13.10;99.90;;;;;;5176965;27;20380;-79
2022/07/08 03:03:46;;;;;;;8.40;2.35;;;13.00;99.90;;;;;;5177018;27;20374;-79
2022/07/08 03:06:12;;;;;;;8.38;2.70;;;13.00;99.90;;;;;;5176804;27;20089;-78
2022/07/08 03:08:37;;;;;;;7.68;2.20;;;13.00;99.90;;;;;;5176604;27;20406;-79
2022/07/08 03:11:03;;;;;;;8.80;2.53;;;13.00;99.90;;;;;;5176749;27;20477;-79
2022/07/08 03:13:28;;;;;;;10.68;2.67;;;13.00;99.90;;;;;;5176773;27;20478;-78
2022/07/08 03:15:54;;;;;;;11.70;2.45;;;12.90;99.90;;;;;;5176754;27;20503;-79
2022/07/08 03:18:20;;;;;;;7.40;2.40;;;12.90;99.90;;;;;;5176693;27;20039;-79
2022/07/08 03:20:46;;;;;;;7.13;2.17;;;12.90;99.90;;;;;;5176693;27;20046;-79
2022/07/08 03:23:12;;;;;;;8.35;2.05;;;12.90;99.90;;;;;;5176312;27;20090;-79
2022/07/08 03:25:37;;;;;;;10.57;2.70;;;12.90;99.90;;;;;;5176231;27;20038;-79
2022/07/08 03:28:03;;;;;;;11.05;2.50;;;12.90;99.90;;;;;;5157663;27;20026;-79
2022/07/08 03:30:29;;;;;;;8.15;2.55;;;12.90;99.90;;;;;;5176242;27;20501;-79
2022/07/08 03:32:54;;;;;;;6.97;2.17;;;12.90;99.90;;;;;;5176487;27;20087;-79
2022/07/08 03:35:20;;;;;;;8.10;2.08;;;12.90;99.90;;;;;;5176480;27;20042;-79
2022/07/08 03:37:47;;;;;;;10.17;2.77;;;12.90;99.90;;;;;;5176409;27;20086;-79
2022/07/08 03:42:57;;;;;;;7.60;2.35;;;12.90;99.90;;;;;;5176391;27;20393;-79
2022/07/08 03:45:23;;;;;;;7.10;2.47;;;12.90;99.90;;;;;;5176299;27;20034;-79
2022/07/08 03:47:49;;;;;;;6.32;2.20;;;12.90;99.90;;;;;;5176354;27;20073;-79
2022/07/08 03:50:15;;;;;;;12.17;2.80;;;12.90;99.90;;;;;;5176212;27;20042;-79
2022/07/08 03:52:40;;;;;;;8.52;2.47;;;12.90;99.90;;;;;;5176348;27;20038;-79
2022/07/08 03:55:07;;;;;;;8.93;2.22;;;12.90;99.90;;;;;;5176090;27;20073;-79
2022/07/08 03:57:33;;;;;;;6.90;2.40;;;13.00;99.90;;;;;;5176181;27;20045;-79
2022/07/08 03:59:58;;;;;;;9.82;2.55;;;13.00;99.90;;;;;;5176246;27;20034;-78
2022/07/08 04:02:24;;;;;;;7.57;2.30;;;13.00;99.90;;;;;;5176177;27;20045;-79
2022/07/08 04:04:50;;;;;;;7.40;2.10;;;13.00;99.90;;;;;;5176019;27;20030;-79
2022/07/08 04:07:16;;;;;;;5.90;2.10;;;13.00;99.90;;;;;;5157512;27;20087;-78
2022/07/08 04:09:42;;;;;;;9.68;2.67;;;13.00;99.90;;;;;;5175798;27;20490;-79
2022/07/08 04:12:08;;;;;;;7.83;2.37;;;13.00;99.90;;;;;;5176115;27;20045;-79
2022/07/08 04:14:34;;;;;;;7.22;2.22;;;13.00;99.90;;;;;;5175957;27;20050;-78
2022/07/08 04:16:59;;;;;;;5.90;2.10;;;13.00;99.90;;;;;;5176054;27;20039;-79
2022/07/08 04:19:25;;;;;;;8.85;2.33;;;12.90;99.90;;;;;;5175981;27;20419;-78
2022/07/08 04:21:50;;;;;;;9.35;2.10;;;13.00;99.90;;;;;;5177296;27;20060;-79
2022/07/08 04:24:16;;;;;;;13.80;2.50;;;13.00;99.90;;;;;;5180074;27;20065;-79
2022/07/08 04:26:41;;;;;;;7.33;2.30;;;13.00;99.90;;;;;;5180067;27;20034;-79
2022/07/08 04:29:07;;;;;;;8.35;2.90;;;13.00;99.90;;;;;;5179993;27;20051;-79
2022/07/08 04:31:32;;;;;;;10.13;2.67;;;13.00;99.90;;;;;;5179956;27;20031;-78
2022/07/08 04:33:58;;;;;;;7.00;2.20;;;13.00;99.90;;;;;;5179875;27;20042;-78
2022/07/08 04:36:24;;;;;;;9.20;2.42;;;13.00;99.90;;;;;;5179560;27;20038;-78
2022/07/08 04:38:50;;;;;;;8.48;2.55;;;13.00;99.90;;;;;;5179878;27;20038;-78
2022/07/08 04:41:16;;;;;;;8.02;2.33;;;13.00;99.90;;;;;;5179582;27;20385;-79
2022/07/08 04:43:43;;;;;;;8.32;2.50;;;13.00;99.90;;;;;;5179794;27;20038;-79
2022/07/08 04:46:10;;;;;;;7.38;2.40;;;13.10;99.90;;;;;;5179459;27;20385;-78
2022/07/08 04:48:36;;;;;;;8.02;2.35;;;13.20;99.90;;;;;;5179606;27;20042;-78
2022/07/08 04:51:01;;;;;;;5.03;1.88;;;13.30;99.90;;;;;;5179514;27;20127;-79
2022/07/08 04:53:27;;;;;;;7.40;2.20;;;13.40;99.90;;;;;;5179540;27;20031;-78
2022/07/08 04:55:52;;;;;;;9.32;2.35;;;13.40;99.90;;;;;;5179510;27;20050;-79
2022/07/08 04:58:18;;;;;;;7.43;2.28;;;13.60;99.90;;;;;;5179669;27;20077;-78
2022/07/08 05:00:43;;;;;;;9.10;2.55;;;13.70;99.90;;;;;;5179609;27;20038;-79
2022/07/08 05:03:09;;;;;;;9.23;2.78;;;13.80;99.90;;;;;;5179212;27;20050;-78
2022/07/08 05:05:34;;;;;;;9.33;2.30;;;13.90;99.90;;;;;;5179114;27;20069;-78
2022/07/08 05:08:00;;;;;;;8.32;2.45;;;14.00;99.90;;;;;;5179149;27;20081;-78
2022/07/08 05:10:27;;;;;;;12.60;2.78;;;14.10;99.90;;;;;;5178903;27;20057;-78
2022/07/08 05:12:54;;;;;;;7.20;2.15;;;14.10;99.90;;;;;;5179059;27;20034;-78
2022/07/08 05:15:20;;;;;;;8.75;2.33;;;14.20;99.90;;;;;;5179153;27;20034;-78
2022/07/08 05:17:47;;;;;;;;;;;14.30;99.90;;;;;;5179467;27;20061;-78
2022/07/08 05:20:13;;;;;;;6.07;2.10;;;14.40;99.90;;;;;;5178922;27;20001;-78
2022/07/08 05:22:39;;;;;;;8.63;2.35;;;14.40;99.90;;;;;;5178999;27;20040;-78
2022/07/08 05:25:06;;;;;;;9.65;2.80;;;14.50;99.90;;;;;;5178798;27;20034;-79
2022/07/08 05:27:32;;;;;;;8.20;2.05;;;14.60;99.90;;;;;;5178871;27;20109;-78
2022/07/08 05:29:58;;;;;;;9.70;2.50;;;14.70;99.90;;;;;;5178924;27;20038;-79
2022/07/08 05:32:24;;;;;;;8.90;2.13;;;14.80;99.90;;;;;;5159467;27;20038;-79
2022/07/08 05:34:49;;;;;;;10.98;2.50;;;14.90;99.90;;;;;;5177739;27;20366;-79
2022/07/08 05:37:15;;;;;;;6.67;2.10;;;15.00;99.90;;;;;;5178665;27;20034;-78
2022/07/08 05:39:41;;;;;;;9.48;2.53;;;15.20;99.90;;;;;;5178767;27;20034;-79
2022/07/08 05:42:08;;;;;;;10.75;2.53;;;15.30;99.90;;;;;;5178622;27;20117;-79
2022/07/08 05:44:34;;;;;;;8.18;2.53;;;15.50;99.90;;;;;;5178316;27;20035;-78
2022/07/08 05:47:00;;;;;;;7.37;1.90;;;15.80;99.90;;;;;;5178542;27;20111;-79
2022/07/08 05:49:25;;;;;;;8.83;2.20;;;16.10;99.90;;;;;;5178401;27;20038;-79
2022/07/08 05:51:51;;;;;;;9.67;1.90;;;16.40;99.90;;;;;;5178404;27;20061;-78
2022/07/08 05:54:16;;;;;;;10.57;2.50;;;16.60;99.90;;;;;;5178376;27;20037;-79
2022/07/08 05:56:42;;;;;;;10.55;2.28;;;17.00;99.90;;;;;;5178319;27;20036;-78
2022/07/08 05:59:07;;;;;;;8.53;2.20;;;17.40;99.90;;;;;;5159636;27;20035;-79
2022/07/08 06:01:33;;;;;;;8.13;2.03;;;17.70;99.90;;;;;;5178223;27;20040;-80
2022/07/08 06:03:58;;;;;;;8.07;1.90;;;18.20;99.90;;;;;;5178080;27;20068;-79
2022/07/08 06:06:24;;;;;;;10.57;2.30;;;18.00;99.90;;;;;;5177739;27;20049;-79
2022/07/08 06:08:49;;;;;;;11.33;2.20;;;17.90;99.90;;;;;;5159144;27;20054;-79
2022/07/08 06:11:15;;;;;;;9.00;1.87;;;18.00;99.90;;;;;;5159229;27;20041;-79
2022/07/08 06:13:40;;;;;;;12.03;2.43;;;18.10;99.90;;;;;;5177943;27;20386;-78
2022/07/08 06:16:06;;;;;;;9.90;2.00;;;17.90;99.90;;;;;;5177908;27;20116;-79
2022/07/08 06:18:34;;;;;;;8.80;2.30;;;17.80;99.90;;;;;;5177793;27;20038;-79
2022/07/08 06:20:59;;;;;;;8.10;1.95;;;17.90;99.90;;;;;;5177725;27;20049;-79
2022/07/08 06:23:25;;;;;;;10.73;2.30;;;18.00;99.90;;;;;;5177711;27;20486;-79
2022/07/08 06:25:50;;;;;;;8.07;1.97;;;18.00;99.90;;;;;;5177670;27;20034;-79
2022/07/08 06:28:16;;;;;;;7.20;1.97;;;18.00;99.90;;;;;;5177609;27;20090;-79
2022/07/08 06:30:42;;;;;;;9.90;1.93;;;18.00;99.90;;;;;;5177591;27;20034;-80
2022/07/08 06:33:08;;;;;;;9.70;1.97;;;17.90;99.90;;;;;;5177616;27;20094;-79
2022/07/08 06:35:33;;;;;;;8.00;1.93;;;18.00;99.90;;;;;;5177414;27;20279;-79
2022/07/08 06:37:59;;;;;;;8.03;1.90;;;18.00;99.90;;;;;;5177483;27;20109;-79
2022/07/08 06:40:25;;;;;;;7.73;1.63;;;18.10;99.90;;;;;;5177401;27;20046;-78
2022/07/08 06:42:51;;;;;;;7.23;2.33;;;18.00;99.90;;;;;;5177349;27;20038;-78
2022/07/08 06:45:16;;;;;;;10.03;2.33;;;18.00;99.90;;;;;;5176879;27;20038;-78
2022/07/08 06:47:42;;;;;;;8.37;1.90;;;18.00;99.90;;;;;;5177238;27;20474;-78
2022/07/08 06:50:08;;;;;;;10.80;2.27;;;18.00;99.90;;;;;;5177194;27;20434;-78
2022/07/08 06:52:35;;;;;;;7.30;2.38;;;18.00;99.90;;;;;;5177171;27;20034;-79
2022/07/08 06:55:01;;;;;;;6.65;2.10;;;18.00;99.90;;;;;;5177122;27;20034;-79
2022/07/08 06:57:27;;;;;;;11.30;2.53;;;18.00;99.90;;;;;;5177065;27;20505;-79
2022/07/08 06:59:53;;;;;;;8.80;2.55;;;17.90;99.90;;;;;;5177026;27;20045;-79
2022/07/08 07:02:18;;;;;;;9.90;1.87;;;17.90;99.90;;;;;;5176996;27;20042;-79
2022/07/08 07:04:44;;;;;;;7.33;2.57;;;17.90;99.90;;;;;;5158103;27;20066;-78
2022/07/08 07:07:10;;;;;;;9.68;2.25;;;17.60;99.90;;;;;;5176908;27;20034;-78
2022/07/08 07:09:36;;;;;;;10.33;2.73;;;17.70;99.90;;;;;;5158040;27;20546;-79
2022/07/08 07:12:06;;;;;;;5.67;1.90;;;17.70;99.90;;;;;;5176858;27;20029;-79
2022/07/08 07:14:32;;;;;;;7.45;2.00;;;17.70;99.90;;;;;;5176776;27;20030;-79
2022/07/08 07:16:59;;;;;;;9.13;2.25;;;17.70;99.90;;;;;;5176722;27;20042;-79
2022/07/08 07:19:25;;;;;;;8.50;2.35;;;17.70;99.90;;;;;;5176632;27;20069;-79
2022/07/08 07:21:50;;;;;;;13.40;2.60;;;17.60;99.90;;;;;;5176664;27;20076;-79
2022/07/08 07:24:16;;;;;;;8.63;2.13;;;17.70;99.90;;;;;;5176315;27;20086;-79
2022/07/08 07:26:41;;;;;;;13.33;2.63;;;17.60;99.90;;;;;;5176628;27;20070;-79
2022/07/08 07:29:08;;;;;;;12.83;2.17;;;17.70;99.90;;;;;;5176539;27;20545;-79
2022/07/08 07:31:34;;;;;;;12.15;2.50;;;17.70;99.90;;;;;;5176514;27;20038;-79
2022/07/08 07:34:00;;;;;;;6.65;1.90;;;17.60;99.90;;;;;;5157979;27;20381;-79
2022/07/08 07:36:26;;;;;;;8.10;2.07;;;17.70;99.90;;;;;;5176468;27;20038;-79
2022/07/08 07:38:52;;;;;;;10.87;2.30;;;17.80;99.90;;;;;;5176792;27;20047;-79
2022/07/08 07:41:17;;;;;;;10.27;2.10;;;17.80;99.90;;;;;;5176448;27;20042;-79
2022/07/08 07:43:43;;;;;;;7.83;2.10;;;18.10;99.90;;;;;;5176195;27;20034;-79
2022/07/08 07:46:09;;;;;;;7.87;2.17;;;17.80;99.90;;;;;;5176297;27;20043;-79
2022/07/08 07:48:34;;;;;;;11.30;2.50;;;17.90;99.90;;;;;;5176226;27;20482;-79
2022/07/08 07:51:00;;;;;;;9.10;2.50;;;17.90;99.90;;;;;;5176294;27;20090;-79
2022/07/08 07:53:27;;;;;;;9.33;2.10;;;17.90;99.90;;;;;;5176307;27;20030;-79
2022/07/08 07:55:53;;;;;;;8.63;2.10;;;18.00;99.90;;;;;;5176193;27;20066;-79
2022/07/08 07:58:19;;;;;;;7.57;1.85;;;18.00;99.90;;;;;;5180292;27;20041;-79
2022/07/08 08:00:45;;;;;;;6.93;1.87;;;18.00;99.90;;;;;;5180573;27;20042;-79
2022/07/08 08:03:11;;;;;;;9.80;2.67;;;18.00;99.90;;;;;;5180470;27;20279;-79
2022/07/08 08:05:38;;;;;;;11.73;2.60;;;18.10;99.90;;;;;;5180458;27;20038;-79
2022/07/08 08:08:05;;;;;;;9.57;2.30;;;18.10;99.90;;;;;;5180202;27;20426;-79
2022/07/08 08:10:30;;;;;;;8.55;2.00;;;18.20;99.90;;;;;;5180377;27;20042;-79
2022/07/08 08:12:56;;;;;;;7.90;2.47;;;18.20;99.90;;;;;;5180389;27;20093;-79
2022/07/08 08:15:23;;;;;;;9.93;2.43;;;18.30;99.90;;;;;;5180314;27;20038;-79
2022/07/08 08:17:48;;;;;;;7.57;2.17;;;18.30;99.90;;;;;;5180145;27;20565;-79
2022/07/08 08:20:14;;;;;;;10.10;2.27;;;18.30;99.90;;;;;;5180241;27;20073;-79
2022/07/08 08:22:40;;;;;;;8.90;2.20;;;18.30;99.90;;;;;;5180194;27;20073;-79
2022/07/08 08:25:06;;;;;;;9.27;2.43;;;18.30;99.90;;;;;;5179721;27;20038;-79
2022/07/08 08:27:31;;;;;;;9.07;2.17;;;18.30;99.90;;;;;;5180008;27;20040;-79
2022/07/08 08:29:57;;;;;;;8.57;2.40;;;18.30;99.90;;;;;;5179927;27;20462;-79
2022/07/08 08:32:23;;;;;;;7.77;2.40;;;18.30;99.90;;;;;;5179897;27;20038;-79
2022/07/08 08:34:48;;;;;;;10.33;2.40;;;18.30;99.90;;;;;;5179594;27;20478;-79
2022/07/08 08:37:14;;;;;;;11.57;2.30;;;18.30;99.90;;;;;;5179905;27;20115;-79
2022/07/08 08:39:40;;;;;;;8.37;2.03;;;18.30;99.90;;;;;;5161208;27;20030;-78
2022/07/08 08:42:07;;;;;;;6.82;2.00;;;18.40;99.90;;;;;;5179649;27;20034;-79
2022/07/08 08:44:33;;;;;;;6.68;1.90;;;18.50;99.90;;;;;;5179571;27;20049;-79
2022/07/08 08:47:02;;;;;;;8.63;2.08;;;18.50;99.90;;;;;;5179540;27;20066;-80
2022/07/08 08:49:33;;;;;;;10.82;2.13;;;18.60;99.90;;;;;;5179640;27;20049;-80
2022/07/08 08:52:01;;;;;;;11.88;2.20;;;18.70;99.90;;;;;;5179300;27;20055;-80
2022/07/08 08:54:28;;;;;;;7.20;1.92;;;18.80;99.90;;;;;;5179592;27;20382;-80
2022/07/08 08:56:54;;;;;;;10.40;1.90;;;18.90;99.90;;;;;;5179465;27;20371;-78
2022/07/08 08:59:20;;;;;;;8.80;2.13;;;19.00;99.90;;;;;;5179136;27;20041;-79
2022/07/08 09:01:47;;;;;;;7.40;2.03;;;19.10;99.90;;;;;;5179336;27;20482;-79
2022/07/08 09:04:13;;;;;;;7.03;2.15;;;19.20;99.90;;;;;;5179349;27;20130;-80
2022/07/08 09:06:39;;;;;;;6.93;2.07;;;19.30;99.90;;;;;;5179189;27;20042;-78
2022/07/08 09:09:05;;;;;;;7.75;2.10;;;19.20;99.90;;;;;;5178707;27;20296;-79
2022/07/08 09:11:33;;;;;;;8.70;2.17;;;19.30;99.90;;;;;;5179210;27;20125;-79
2022/07/08 09:14:21;;;;;;;7.50;1.83;;;19.00;99.90;;;;;;5179195;27;20075;-79
2022/07/08 09:17:08;;;;;;;8.70;2.00;;;19.30;99.90;;;;;;5179067;27;20040;-79
2022/07/08 09:19:34;;;;;;;14.93;2.53;;;19.10;99.90;;;;;;5179020;27;20382;-79
2022/07/08 09:21:59;;;;;;;10.23;2.30;;;19.30;99.90;;;;;;5178919;27;20041;-79
2022/07/08 09:24:27;;;;;;;7.57;2.33;;;19.30;99.90;;;;;;5178854;27;20034;-80
2022/07/08 09:26:56;;;;;;;8.40;2.08;;;19.20;99.90;;;;;;5178602;27;20035;-80
2022/07/08 09:29:22;;;;;;;8.95;1.98;;;19.30;99.90;;;;;;5178761;27;20109;-80
2022/07/08 09:31:48;;;;;;;8.65;1.92;;;19.20;99.90;;;;;;5178804;27;20042;-80
2022/07/08 09:34:16;;;;;;;9.48;2.10;;;19.30;99.90;;;;;;5178813;27;20034;-80
2022/07/08 09:36:47;;;;;;;11.45;2.35;;;19.50;99.90;;;;;;5142744;27;20079;-80
2022/07/08 09:39:25;;;;;;;7.95;1.80;;;19.40;99.90;;;;;;5178737;27;20442;-80
2022/07/08 09:41:51;;;;;;;9.55;1.65;;;19.60;99.90;;;;;;5178620;27;20061;-80
2022/07/08 09:44:19;;;;;;;15.45;2.70;;;19.30;99.90;;;;;;5178584;27;20076;-80
2022/07/08 09:46:46;;;;;;;10.40;2.47;;;19.60;99.90;;;;;;5178500;27;20121;-80
2022/07/08 09:49:32;;;;;;;7.10;2.03;;;19.60;99.90;;;;;;5178457;27;20068;-80
2022/07/08 09:51:59;;;;;;;6.43;2.10;;;19.70;99.90;;;;;;5178401;27;20105;-80
2022/07/08 09:54:27;;;;;;;6.07;1.95;;;19.90;99.90;;;;;;5160413;27;20038;-79
2022/07/08 09:57:03;;;;;;;7.95;1.90;;;19.70;99.90;;;;;;5178300;27;20046;-78
2022/07/08 09:59:33;;;;;;;6.60;1.77;;;19.70;99.90;;;;;;5178326;27;20056;-79
2022/07/08 10:01:59;;;;;;;8.05;2.05;;;19.80;99.90;;;;;;5178163;27;20031;-79
2022/07/08 10:04:26;;;;;;;4.80;1.67;;;19.60;99.90;;;;;;5178061;27;20438;-79
2022/07/08 10:06:52;;;;;;;;;;;19.80;99.90;;;;;;5159934;27;20091;-79
2022/07/08 10:09:19;;;;;;;7.97;1.77;;;19.80;99.90;;;;;;5177743;27;19923;-78
2022/07/08 10:11:46;;;;;;;9.32;2.42;;;19.60;99.90;;;;;;5178338;27;20039;-79
2022/07/08 10:14:12;;;;;;;7.90;2.17;;;19.90;99.90;;;;;;5177961;27;20061;-78
2022/07/08 10:16:39;;;;;;;11.20;2.03;;;19.80;99.90;;;;;;5177805;27;20481;-79
2022/07/08 10:19:09;;;;;;;15.52;2.90;;;19.90;99.90;;;;;;5177070;27;20045;-79
2022/07/08 10:21:38;;;;;;;12.55;2.63;;;19.80;99.90;;;;;;5178068;27;20099;-78
2022/07/08 10:24:07;;;;;;;8.32;2.35;;;20.00;99.90;;;;;;5177721;27;20042;-79
2022/07/08 10:26:36;;;;;;;19.50;3.97;;;19.90;99.90;;;;;;5177641;27;20049;-79
2022/07/08 10:29:07;;;;;;;10.82;2.33;;;20.10;99.90;;;;;;5177655;27;20058;-80
2022/07/08 10:31:50;;;;;;;8.57;2.85;;;20.20;99.90;;;;;;5177319;27;20030;-79
2022/07/08 10:34:20;;;;;;;64.68;9.20;;;20.20;99.90;;;;;;5177590;27;20117;-78
2022/07/08 10:36:51;;;;;;;13.55;3.17;;;20.20;99.90;;;;;;5158828;27;20371;-79
2022/07/08 10:39:27;;;;;;;16.58;3.50;;;20.20;99.90;;;;;;5177158;27;20046;-79
2022/07/08 10:41:59;;;;;;;24.58;3.97;;;20.20;99.90;;;;;;5177417;27;20037;-79
2022/07/08 10:44:43;;;;;;;13.20;3.17;;;20.10;99.90;;;;;;5177395;27;20042;-79
2022/07/08 10:47:10;;;;;;;20.80;3.85;;;20.70;99.90;;;;;;5177252;27;20086;-79
2022/07/08 10:49:47;;;;;;;9.90;2.95;;;20.10;99.90;;;;;;5177246;27;20038;-79
2022/07/08 10:52:17;;;;;;;9.02;2.20;;;20.00;99.90;;;;;;5177056;27;20038;-79
2022/07/08 10:54:43;;;;;;;7.10;2.22;;;19.70;99.90;;;;;;5177159;27;20034;-79
2022/07/08 10:57:21;;;;;;;10.27;2.53;;;20.00;99.90;;;;;;5177126;27;20070;-80
2022/07/08 11:00:10;;;;;;;7.75;2.80;;;20.10;99.90;;;;;;5177081;27;20086;-80
2022/07/08 11:02:48;;;;;;;13.40;3.40;;;20.20;99.90;;;;;;5176901;27;20062;-79
2022/07/08 11:05:39;;;;;;;8.32;2.60;;;20.30;99.90;;;;;;5176833;27;20121;-79
2022/07/08 11:08:25;;;;;;;8.85;2.03;;;20.40;99.90;;;;;;5157918;27;20034;-79
2022/07/08 11:10:51;;;;;;;15.20;3.00;;;20.60;99.90;;;;;;5176943;27;20034;-78
2022/07/08 11:13:20;;;;;;;;;;;20.80;99.90;;;;;;5177256;27;20401;-78
2022/07/08 11:15:46;;;;;;;8.55;2.30;;;20.90;99.90;;;;;;5158908;27;19914;-78
2022/07/08 11:18:19;;;;;;;6.47;2.00;;;21.10;99.90;;;;;;5176819;27;20038;-79
2022/07/08 11:20:45;;;;;;;11.63;2.53;;;21.30;99.90;;;;;;5176717;27;20049;-78
2022/07/08 11:23:11;;;;;;;7.27;2.03;;;21.80;99.90;;;;;;5176701;27;20493;-78
2022/07/08 11:25:36;;;;;;;11.37;2.53;;;22.40;99.90;;;;;;5176559;27;20073;-78
2022/07/08 11:28:02;;;;;;;10.80;2.10;;;22.10;99.90;;;;;;5176600;27;20037;-79
2022/07/08 11:30:33;;;;;;;8.67;2.07;;;22.20;99.90;;;;;;5176574;27;20540;-78
2022/07/08 11:32:59;;;;;;;5.35;1.83;;;22.10;99.90;;;;;;5176540;27;20038;-78
2022/07/08 11:35:25;;;;;;;6.20;1.90;;;22.30;99.90;;;;;;5176487;27;20142;-78
2022/07/08 11:37:51;;;;;;;6.07;1.90;;;22.40;99.90;;;;;;5176418;27;20094;-78
2022/07/08 11:40:16;;;;;;;8.47;2.17;;;22.50;99.90;;;;;;5176237;27;20370;-78
2022/07/08 11:42:42;;;;;;;7.50;2.23;;;22.70;99.90;;;;;;5176321;27;20041;-78
2022/07/08 11:45:12;;;;;;;7.93;2.03;;;22.80;99.90;;;;;;5176272;27;20038;-78
2022/07/08 11:47:38;;;;;;;6.18;1.80;;;23.10;99.90;;;;;;5176351;27;20034;-78
2022/07/08 11:50:07;;;;;;;6.10;1.88;;;23.30;99.90;;;;;;5176315;27;20066;-79
2022/07/08 11:52:32;;;;;;;6.80;2.10;;;23.40;99.90;;;;;;5176229;27;20030;-79
2022/07/08 11:54:58;;;;;;;8.43;2.47;;;23.50;99.90;;;;;;5176257;27;20045;-78
2022/07/08 11:57:24;;;;;;;6.43;1.90;;;23.50;99.90;;;;;;5157663;27;20037;-79
2022/07/08 11:59:50;;;;;;;7.50;1.80;;;23.60;99.90;;;;;;5176257;27;20452;-79
2022/07/08 12:02:20;;;;;;;11.40;2.93;;;23.60;99.90;;;;;;5176162;27;20042;-78
2022/07/08 12:04:48;;;;;;;8.35;2.10;;;23.40;99.90;;;;;;5176142;27;20359;-78
2022/07/08 12:07:25;;;;;;;8.27;1.85;;;23.30;99.90;;;;;;5176079;27;20045;-79
2022/07/08 12:10:03;;;;;;;8.70;2.00;;;23.40;99.90;;;;;;5175706;27;20046;-78
2022/07/08 12:12:31;;;;;;;6.78;2.10;;;23.60;99.90;;;;;;5176047;27;20026;-78
2022/07/08 12:15:08;;;;;;;7.03;2.17;;;23.80;99.90;;;;;;5175757;27;20496;-78
2022/07/08 12:17:34;;;;;;;;;;;23.90;99.90;;;;;;5176215;27;20473;-79
2022/07/08 12:19:59;;;;;;;7.60;1.83;;;23.70;99.90;;;;;;5176056;27;19915;-79
2022/07/08 12:23:01;;;;;;;7.10;1.87;;;23.60;99.90;;;;;;5175962;27;20389;-79
2022/07/08 12:25:27;;;;;;;5.38;1.58;;;23.40;99.90;;;;;;5071091;28;20072;-79
2022/07/08 12:27:57;;;;;;;4.43;1.80;;;23.30;99.90;;;;;;5154593;27;20077;-79
2022/07/08 12:30:27;;;;;;;6.93;2.15;;;23.20;99.90;;;;;;5175826;27;20490;-78
2022/07/08 12:33:02;;;;;;;5.60;1.77;;;23.20;99.90;;;;;;5175840;27;20046;-79
2022/07/08 12:35:29;;;;;;;9.65;2.25;;;23.20;99.90;;;;;;5175872;27;20038;-79
2022/07/08 12:38:10;;;;;;;6.82;2.30;;;23.30;99.90;;;;;;5175835;27;20090;-79
2022/07/08 12:40:40;;;;;;;6.45;2.10;;;23.20;99.90;;;;;;5175857;27;20066;-78
2022/07/08 12:43:08;;;;;;;7.22;2.17;;;23.20;99.90;;;;;;5177572;27;20098;-79
2022/07/08 12:45:34;;;;;;;6.82;2.10;;;23.20;99.90;;;;;;5179592;27;20038;-79
2022/07/08 12:48:00;;;;;;;6.85;1.90;;;23.30;99.90;;;;;;5179680;27;20034;-79